Pagrindinis puslapis
METAR-TAF:

METAR-TAF

Oro uostai :

Čangčunas, Kinija

platuma: 43-54N, ilguma: 125-13E, Aukštis: 238 m

Dabartinis oras

Ataskaita buvo paskelbta 35 minutes, ne 14:00 UTC
Vėjas 10 kt iš Pietų
Temperatūra 22°C
Drėgmė 33%
Slėgis 1011 hPa
Matomumas 10 km arba daugiau
nėra debesų žemiau 1500 m ir nėra kamuolinių lietaus debesų

METAR: ZYCC 291400Z 19005MPS CAVOK 22/05 Q1011 NOSIG

Laikas: 22:35 (14:35 UTC)

Prognozė

Ataskaita buvo paskelbta 5 valandos ir 33 minutes, ne 09:02 UTC
Prognozė galioja nuo 29 metu 12 UTC su 30 metu 12 UTC
Vėjas 10 kt iš Pietų/Pietvakarių
Matomumas: 6000 m
Mažai debesys ne aukštis 2600 ft

TAF: ZYCC 290902Z 2912/3012 20005MPS 6000 FEW026 TX28/3006Z TN17/2920Z

Orai ataskaitas ir orų prognozės (METAR, TAF).

turimą stotys yra geltonos ir raudonos taškus žemėlapyje.

Perkelti pele per norėdami pamatyti stoties vardą.

Tada spustelėkite, norėdami matyti oro stebėjimo ir prognozės.

Norėdami pakeisti žemėlapį: spustelėkite ant žalios mygtukų su juodo kryžiaus žemyn,; žalią mygtuką su brūkšneliu, jei norite nutolinti; arba žalių rodyklių gretimoms žemėlapius.


METAR-TAF: